Time;durP1;ratioP1;P1;durP2;ratioP2;P2;SDS_P1;SDS_P2;PMS_P1;PMS_P2;Temp;Humidity;BMP_temperature;BMP_pressure;BME280_temperature;BME280_humidity;BME280_pressure;Samples;Min_cycle;Max_cycle;Signal;HPM_P1;HPM_P2
2024/02/23 00:00:08;;;;;;;4.20;0.90;;;;;;;4.91;100.00;98509.97;5046980;28;20305;-87
2024/02/23 00:02:34;;;;;;;4.83;0.77;;;;;;;1.86;100.00;98028.94;5046845;28;20674;-87
2024/02/23 00:05:02;;;;;;;6.60;0.80;;;;;;;1.68;100.00;98073.72;5048054;28;20435;-87
2024/02/23 00:07:28;;;;;;;8.10;1.20;;;;;;;3.95;100.00;98481.94;5047675;28;20176;-87
2024/02/23 00:09:58;;;;;;;6.10;1.03;;;;;;;4.00;100.00;98402.53;5047305;28;20447;-86
2024/02/23 00:12:26;;;;;;;5.90;1.10;;;;;;;0.97;100.00;97979.50;5046955;28;20636;-87
2024/02/23 00:14:54;;;;;;;5.50;0.90;;;;;;;3.90;100.00;98495.03;5050320;28;20474;-88
2024/02/23 00:17:20;;;;;;;7.40;1.20;;;;;;;4.17;100.00;98530.19;5044209;28;20417;-85
2024/02/23 00:19:47;;;;;;;5.07;0.97;;;;;;;2.92;100.00;98290.28;5043375;28;20188;-87
2024/02/23 00:22:12;;;;;;;4.00;0.60;;;;;;;2.34;100.00;98326.53;5054622;28;20220;-89
2024/02/23 00:27:30;;;;;;;4.90;0.80;;;;;;;5.12;100.00;98631.81;5092213;27;20541;-73
2024/02/23 00:29:55;;;;;;;6.03;0.80;;;;;;;5.01;100.00;98619.25;5084355;28;20449;-73
2024/02/23 00:32:24;;;;;;;5.00;0.80;;;;;;;4.80;100.00;98579.75;5077333;28;20430;-72
2024/02/23 00:34:49;;;;;;;4.50;0.70;;;;;;;4.81;100.00;98594.69;5055429;28;20251;-72
2024/02/23 00:37:15;;;;;;;7.23;0.90;;;;;;;4.04;100.00;98521.25;5073546;28;20460;-73
2024/02/23 00:39:40;;;;;;;6.03;1.00;;;;;;;5.06;100.00;98635.31;5072751;28;20293;-72
2024/02/23 00:42:06;;;;;;;8.10;1.30;;;;;;;5.20;100.00;98705.13;5073840;28;20270;-72
2024/02/23 00:44:31;;;;;;;5.50;1.03;;;;;;;4.80;100.00;98639.00;5071411;28;20191;-73
2024/02/23 00:47:01;;;;;;;8.77;1.27;;;;;;;4.80;100.00;98708.06;5070325;28;20637;-73
2024/02/23 00:49:28;;;;;;;7.60;1.90;;;;;;;4.89;100.00;98728.03;5072628;28;20627;-75
2024/02/23 00:51:55;;;;;;;11.20;1.97;;;;;;;4.35;100.00;98696.66;5073844;28;20446;-73
2024/02/23 00:54:20;;;;;;;8.50;1.40;;;;;;;4.96;100.00;98783.78;5072189;28;20505;-73
2024/02/23 00:56:46;;;;;;;8.67;0.93;;;;;;;4.92;100.00;98833.88;5076887;28;20559;-73
2024/02/23 00:59:12;;;;;;;10.00;1.30;;;;;;;4.62;100.00;98846.84;5069620;28;20661;-72
2024/02/23 01:01:37;;;;;;;6.63;1.00;;;;;;;4.88;100.00;98938.09;5071215;28;20266;-73
2024/02/23 01:04:03;;;;;;;5.43;1.03;;;;;;;4.61;100.00;98934.69;5055593;28;20186;-73
2024/02/23 01:06:29;;;;;;;4.70;0.80;;;;;;;4.07;100.00;98825.91;5074624;28;20278;-73
2024/02/23 01:08:54;;;;;;;7.17;0.80;;;;;;;4.84;100.00;98923.63;5058459;28;20207;-73
2024/02/23 01:11:19;;;;;;;4.90;1.07;;;;;;;4.30;100.00;98771.59;5066143;28;20206;-73
2024/02/23 01:13:45;;;;;;;8.23;1.00;;;;;;;4.94;100.00;98852.25;5069347;28;20190;-73
2024/02/23 01:16:10;;;;;;;4.97;0.97;;;;;;;4.48;100.00;98793.00;5074723;28;20205;-73
2024/02/23 01:18:36;;;;;;;9.80;1.37;;;;;;;4.62;100.00;98727.34;5054176;28;20191;-73
2024/02/23 01:21:01;;;;;;;8.87;1.37;;;;;;;5.06;100.00;98783.31;5068210;28;20203;-74
2024/02/23 01:23:27;;;;;;;9.33;1.13;;;;;;;4.80;100.00;98789.56;5055611;28;20731;-73
2024/02/23 01:25:52;;;;;;;7.90;1.40;;;;;;;4.69;100.00;98757.38;5073471;28;20191;-73
2024/02/23 01:28:18;;;;;;;6.50;1.20;;;;;;;5.05;100.00;98771.88;5055253;28;20190;-73
2024/02/23 01:30:43;;;;;;;9.80;1.43;;;;;;;5.69;100.00;98897.66;5065105;28;20689;-73
2024/02/23 01:33:09;;;;;;;5.60;0.90;;;;;;;5.13;100.00;98893.06;5055428;28;20684;-74
2024/02/23 01:35:36;;;;;;;6.50;0.90;;;;;;;4.90;100.00;98853.72;5064442;28;20203;-73
2024/02/23 01:38:02;;;;;;;6.37;1.03;;;;;;;5.34;100.00;98940.59;5062429;28;20180;-74
2024/02/23 01:40:28;;;;;;;4.83;0.80;;;;;;;5.17;100.00;98968.69;5039485;28;20548;-73
2024/02/23 01:43:02;;;;;;;9.10;1.00;;;;;;;5.39;100.00;98999.28;5063064;28;20448;-72
2024/02/23 01:45:27;;;;;;;8.27;1.00;;;;;;;5.52;100.00;99010.91;5038281;28;20438;-72
2024/02/23 01:47:53;;;;;;;6.93;1.17;;;;;;;4.99;100.00;98977.31;5056407;28;21259;-72
2024/02/23 01:50:18;;;;;;;4.30;0.80;;;;;;;4.27;100.00;98873.66;5058125;28;20442;-73
2024/02/23 01:52:44;;;;;;;7.57;1.00;;;;;;;5.38;100.00;99064.13;5055883;28;20213;-72
2024/02/23 01:55:10;;;;;;;8.40;1.10;;;;;;;5.17;100.00;99030.63;5039521;28;20186;-72
2024/02/23 01:57:35;;;;;;;9.20;1.67;;;;;;;5.07;100.00;99038.22;5058599;28;20311;-73
2024/02/23 02:00:01;;;;;;;6.20;1.30;;;;;;;5.33;100.00;99073.75;5042079;28;20572;-72
2024/02/23 02:02:27;;;;;;;10.10;1.70;;;;;;;4.87;100.00;98969.19;5040698;28;20197;-72
2024/02/23 02:04:52;;;;;;;9.90;1.43;;;;;;;4.61;100.00;98988.63;5040195;28;20682;-72
2024/02/23 02:07:19;;;;;;;13.70;1.50;;;;;;;4.87;100.00;99034.78;5059487;28;20421;-72
2024/02/23 02:09:45;;;;;;;7.00;1.17;;;;;;;5.26;100.00;99158.00;5057378;28;20696;-72
2024/02/23 02:12:11;;;;;;;7.10;1.37;;;;;;;5.30;100.00;99145.97;5039102;28;20438;-72
2024/02/23 02:14:45;;;;;;;7.17;1.20;;;;;;;4.02;100.00;98995.53;5058280;28;20191;-73
2024/02/23 02:17:10;;;;;;;4.77;0.97;;;;;;;4.98;100.00;99081.97;5045291;28;20601;-74
2024/02/23 02:19:36;;;;;;;5.13;1.00;;;;;;;5.17;100.00;99115.69;5053834;28;20457;-73
2024/02/23 02:22:01;;;;;;;8.90;1.53;;;;;;;4.59;100.00;99011.91;5055193;28;20270;-72
2024/02/23 02:24:28;;;;;;;9.63;1.30;;;;;;;4.96;100.00;99050.28;5040259;28;20242;-72
2024/02/23 02:26:53;;;;;;;7.77;1.70;;;;;;;4.01;100.00;98890.41;5041222;28;20191;-72
2024/02/23 02:29:19;;;;;;;8.20;1.40;;;;;;;4.50;100.00;98975.97;5054192;28;20437;-73
2024/02/23 02:31:44;;;;;;;10.23;1.40;;;;;;;4.99;100.00;99023.31;5047030;28;20195;-74
2024/02/23 02:34:12;;;;;;;9.00;1.40;;;;;;;4.58;100.00;98927.97;5056798;28;20188;-72
2024/02/23 02:36:38;;;;;;;7.23;1.20;;;;;;;4.70;100.00;98922.81;5038040;28;20630;-72
2024/02/23 02:39:04;;;;;;;6.87;1.13;;;;;;;5.16;100.00;99052.13;5056719;28;20473;-73
2024/02/23 02:41:30;;;;;;;9.80;1.53;;;;;;;4.64;100.00;98990.88;5040545;28;20242;-73
2024/02/23 02:43:59;;;;;;;8.87;1.57;;;;;;;5.21;100.00;99081.56;5056704;28;20457;-73
2024/02/23 02:46:24;;;;;;;6.83;1.23;;;;;;;5.24;100.00;99097.09;5037497;28;20444;-73
2024/02/23 02:48:50;;;;;;;8.47;1.10;;;;;;;4.77;100.00;99064.38;5052525;28;20429;-73
2024/02/23 02:51:15;;;;;;;10.83;1.70;;;;;;;5.06;100.00;99115.47;5059546;28;20218;-74
2024/02/23 02:53:41;;;;;;;11.47;1.70;;;;;;;4.68;100.00;99049.69;5057231;28;20187;-73
2024/02/23 02:56:07;;;;;;;6.93;1.40;;;;;;;5.12;100.00;99074.78;5039428;28;20202;-73
2024/02/23 02:58:32;;;;;;;7.57;1.30;;;;;;;5.09;100.00;99061.91;5039319;28;20198;-73
2024/02/23 03:00:58;;;;;;;5.93;1.30;;;;;;;4.93;100.00;99031.28;5061420;28;20205;-73
2024/02/23 03:03:23;;;;;;;7.47;1.27;;;;;;;5.20;100.00;99054.13;5050789;28;20218;-73
2024/02/23 03:05:48;;;;;;;8.97;1.63;;;;;;;4.36;100.00;98914.06;5039042;28;20275;-74
2024/02/23 03:08:14;;;;;;;7.80;1.10;;;;;;;4.97;100.00;99022.69;5058433;28;20191;-73
2024/02/23 03:10:39;;;;;;;7.30;1.43;;;;;;;5.12;100.00;99016.31;5052704;28;20726;-73
2024/02/23 03:13:05;;;;;;;11.53;2.07;;;;;;;5.12;100.00;99006.53;5057649;28;20266;-73
2024/02/23 03:15:30;;;;;;;11.60;1.73;;;;;;;4.89;100.00;99000.84;5054561;28;20569;-73
2024/02/23 03:17:56;;;;;;;8.33;1.63;;;;;;;5.27;100.00;99106.50;5059903;28;20191;-73
2024/02/23 03:20:21;;;;;;;8.80;1.70;;;;;;;5.24;100.00;99128.97;5053963;28;20254;-73
2024/02/23 03:22:46;;;;;;;6.33;1.33;;;;;;;5.33;100.00;99117.09;5042933;28;20214;-73
2024/02/23 03:25:12;;;;;;;8.40;1.90;;;;;;;4.56;100.00;99007.00;5059243;28;20721;-73
2024/02/23 03:27:37;;;;;;;12.07;1.83;;;;;;;5.08;100.00;99076.25;5059471;28;20183;-73
2024/02/23 03:30:05;;;;;;;10.43;2.13;;;;;;;5.27;100.00;99119.78;5059101;28;20207;-73
2024/02/23 03:32:36;;;;;;;7.90;1.70;;;;;;;5.24;100.00;99118.34;5055763;28;20191;-73
2024/02/23 03:35:05;;;;;;;10.37;1.93;;;;;;;5.53;100.00;99101.13;5055922;28;20425;-73
2024/02/23 03:37:31;;;;;;;7.37;1.50;;;;;;;5.44;100.00;99079.25;5038408;28;20615;-73
2024/02/23 03:39:57;;;;;;;9.13;1.63;;;;;;;5.41;100.00;99077.00;5055801;28;20885;-73
2024/02/23 03:42:23;;;;;;;11.20;1.90;;;;;;;5.05;100.00;99028.81;5056151;28;20446;-73
2024/02/23 03:44:48;;;;;;;10.20;1.60;;;;;;;5.36;100.00;99042.25;5057264;28;20460;-73
2024/02/23 03:47:13;;;;;;;7.03;1.50;;;;;;;5.46;100.00;99062.25;5041012;28;20191;-73
2024/02/23 03:49:39;;;;;;;8.93;2.00;;;;;;;4.46;100.00;98937.56;5059013;28;20207;-73
2024/02/23 03:52:05;;;;;;;8.73;1.70;;;;;;;5.20;100.00;99021.41;5057723;28;20179;-74
2024/02/23 03:54:31;;;;;;;14.23;2.17;;;;;;;5.28;100.00;99013.22;5051549;28;20270;-73
2024/02/23 03:56:57;;;;;;;7.57;1.80;;;;;;;5.60;100.00;99071.84;5038482;28;20461;-73
2024/02/23 03:59:22;;;;;;;6.87;1.37;;;;;;;5.48;100.00;99058.38;5036367;28;20441;-73
2024/02/23 04:01:47;;;;;;;8.70;1.50;;;;;;;5.59;100.00;99097.63;5048544;28;20191;-74
2024/02/23 04:04:13;;;;;;;8.90;1.97;;;;;;;5.62;100.00;99115.81;5053014;28;20191;-73
2024/02/23 04:06:38;;;;;;;11.00;1.80;;;;;;;5.27;100.00;99082.56;5055793;28;20241;-73
2024/02/23 04:09:05;;;;;;;6.70;1.47;;;;;;;5.55;100.00;99140.78;5056330;28;20195;-73
2024/02/23 04:11:31;;;;;;;8.70;2.13;;;;;;;5.71;100.00;99187.44;5054465;28;20708;-73
2024/02/23 04:13:58;;;;;;;12.33;1.80;;;;;;;5.73;100.00;99220.78;5058106;28;20441;-73
2024/02/23 04:16:27;;;;;;;8.90;1.87;;;;;;;5.40;100.00;99164.94;5039194;28;20526;-73
2024/02/23 04:18:53;;;;;;;9.87;1.47;;;;;;;5.74;100.00;99262.31;5053576;28;20468;-73
2024/02/23 04:21:19;;;;;;;11.10;1.80;;;;;;;5.10;100.00;99204.44;5033589;28;20457;-73
2024/02/23 04:23:45;;;;;;;17.20;1.67;;;;;;;5.71;100.00;99320.44;5036334;28;20441;-73
2024/02/23 04:26:10;;;;;;;14.73;2.20;;;;;;;5.46;100.00;99291.75;5057065;28;20188;-73
2024/02/23 04:28:39;;;;;;;8.63;1.60;;;;;;;5.76;100.00;99382.66;5036122;28;20183;-74
2024/02/23 04:31:04;;;;;;;8.37;1.80;;;;;;;5.69;100.00;99415.59;5050406;28;20603;-73
2024/02/23 04:33:30;;;;;;;11.47;2.50;;;;;;;5.71;100.00;99376.31;5048891;28;20438;-73
2024/02/23 04:35:55;;;;;;;7.57;1.70;;;;;;;5.64;100.00;99400.22;5054726;28;20582;-73
2024/02/23 04:38:20;;;;;;;10.60;1.60;;;;;;;5.19;100.00;99378.63;5034904;28;20183;-73
2024/02/23 04:40:46;;;;;;;10.60;2.27;;;;;;;5.37;100.00;99368.25;5051433;28;20210;-73
2024/02/23 04:43:11;;;;;;;17.50;2.60;;;;;;;5.34;100.00;99301.38;5057839;28;20195;-73
2024/02/23 04:45:37;;;;;;;14.57;2.27;;;;;;;5.61;100.00;99345.59;5034496;28;20183;-73
2024/02/23 04:48:03;;;;;;;9.60;1.60;;;;;;;5.16;100.00;99268.22;5060843;28;20195;-73
2024/02/23 04:50:29;;;;;;;7.53;1.50;;;;;;;4.66;100.00;99203.13;5042100;28;20203;-73
2024/02/23 04:52:54;;;;;;;13.20;1.47;;;;;;;5.10;100.00;99271.69;5057424;28;20437;-73
2024/02/23 04:55:20;;;;;;;11.17;2.07;;;;;;;5.42;100.00;99299.34;5056502;28;20233;-73
2024/02/23 04:57:45;;;;;;;11.33;1.97;;;;;;;5.38;100.00;99311.41;5040941;28;20191;-73
2024/02/23 05:00:11;;;;;;;8.57;1.40;;;;;;;5.09;100.00;99280.69;5034870;28;20203;-73
2024/02/23 05:02:37;;;;;;;11.20;1.60;;;;;;;4.84;100.00;99227.28;5048844;28;20188;-73
2024/02/23 05:05:04;;;;;;;7.00;1.43;;;;;;;5.34;100.00;99366.00;5056707;28;20433;-73
2024/02/23 05:07:33;;;;;;;6.00;1.10;;;;;;;4.69;100.00;99256.66;5058236;28;20206;-73
2024/02/23 05:09:58;;;;;;;8.33;2.10;;;;;;;5.38;100.00;99348.63;5035554;28;20519;-73
2024/02/23 05:12:24;;;;;;;12.73;1.70;;;;;;;5.27;100.00;99335.94;5058768;28;20456;-73
2024/02/23 05:14:49;;;;;;;9.17;1.40;;;;;;;5.05;100.00;99268.00;5056617;28;20191;-73
2024/02/23 05:17:15;;;;;;;15.40;2.50;;;;;;;5.24;100.00;99288.47;5062275;28;20218;-73
2024/02/23 05:19:40;;;;;;;9.43;1.77;;;;;;;5.18;100.00;99249.41;5058571;28;20241;-74
2024/02/23 05:22:05;;;;;;;9.57;2.50;;;;;;;5.31;100.00;99246.75;5042971;28;20256;-73
2024/02/23 05:24:31;;;;;;;10.93;1.80;;;;;;;5.16;100.00;99267.41;5062867;28;20221;-73
2024/02/23 05:26:57;;;;;;;6.80;1.43;;;;;;;5.26;100.00;99232.44;5060952;28;20207;-73
2024/02/23 05:29:23;;;;;;;10.40;1.67;;;;;;;5.30;100.00;99223.06;5040302;28;20187;-73
2024/02/23 05:31:51;;;;;;;12.20;2.93;;;;;;;4.73;100.00;99143.66;5052756;28;20842;-73
2024/02/23 05:34:18;;;;;;;9.93;2.17;;;;;;;4.85;100.00;99145.72;5054236;28;20445;-74
2024/02/23 05:36:45;;;;;;;13.77;1.80;;;;;;;5.10;100.00;99237.13;5059089;28;20821;-74
2024/02/23 05:39:12;;;;;;;12.97;1.83;;;;;;;5.23;100.00;99236.31;5056504;28;20438;-74
2024/02/23 05:41:38;;;;;;;10.90;1.97;;;;;;;4.85;100.00;99194.38;5060668;28;20441;-73
2024/02/23 05:44:05;;;;;;;14.97;1.70;;;;;;;4.96;100.00;99240.78;5035791;28;20497;-74
2024/02/23 05:46:35;;;;;;;9.20;1.40;;;;;;;5.16;100.00;99264.75;5043518;28;20434;-73
2024/02/23 05:49:02;;;;;;;9.23;1.50;;;;;;;5.04;100.00;99224.66;5040619;28;20528;-73
2024/02/23 05:51:31;;;;;;;8.23;1.60;;;;;;;4.80;100.00;99227.88;5055892;28;20454;-73
2024/02/23 05:53:57;;;;;;;11.93;2.53;;;;;;;4.93;100.00;99241.19;5055988;28;20433;-73
2024/02/23 05:56:24;;;;;;;9.37;1.40;;;;;;;5.03;100.00;99301.91;5060434;28;20459;-73
2024/02/23 05:58:52;;;;;;;8.90;1.30;;;;;;;4.85;100.00;99263.44;5039129;28;20437;-73
2024/02/23 06:01:18;;;;;;;8.57;1.70;;;;;;;4.80;100.00;99312.88;5055889;28;20454;-73
2024/02/23 06:03:44;;;;;;;11.40;1.97;;;;;;;5.19;100.00;99379.44;5057400;28;20943;-73
2024/02/23 06:06:10;;;;;;;9.47;2.10;;;;;;;5.04;100.00;99378.78;5055951;28;20438;-73
2024/02/23 06:08:36;;;;;;;8.50;2.17;;;;;;;5.14;100.00;99426.25;5037288;28;20437;-74
2024/02/23 06:11:03;;;;;;;9.03;2.37;;;;;;;4.85;100.00;99416.72;5056842;28;20446;-73
2024/02/23 06:13:29;;;;;;;9.93;2.30;;;;;;;5.06;100.00;99445.03;5045565;28;20253;-73
2024/02/23 06:15:58;;;;;;;10.87;3.00;;;;;;;5.04;100.00;99463.03;5064478;28;20524;-73
2024/02/23 06:18:23;;;;;;;8.00;2.60;;;;;;;4.72;100.00;99436.88;5057251;28;20422;-72
2024/02/23 06:20:50;;;;;;;8.20;2.20;;;;;;;4.43;100.00;99371.53;5039632;28;20476;-73
2024/02/23 06:23:16;;;;;;;8.33;2.80;;;;;;;4.47;100.00;99394.00;5043071;28;20208;-73
2024/02/23 06:25:42;;;;;;;12.70;3.10;;;;;;;4.72;100.00;99428.09;5060268;28;20437;-73
2024/02/23 06:28:07;;;;;;;9.20;3.00;;;;;;;5.17;100.00;99482.50;5042066;28;20430;-73
2024/02/23 06:30:32;;;;;;;9.47;2.90;;;;;;;3.94;100.00;99302.63;5054442;28;20627;-73
2024/02/23 06:32:58;;;;;;;7.53;2.60;;;;;;;5.17;100.00;99466.53;5059334;28;20266;-73
2024/02/23 06:35:23;;;;;;;12.43;2.87;;;;;;;4.93;100.00;99432.50;5061993;28;20186;-73
2024/02/23 06:37:49;;;;;;;8.60;2.70;;;;;;;4.39;100.00;99324.31;5057558;28;20675;-73
2024/02/23 06:40:15;;;;;;;8.60;3.40;;;;;;;5.13;100.00;99460.00;5042545;28;20199;-73
2024/02/23 06:42:40;;;;;;;10.60;3.40;;;;;;;4.48;100.00;99362.97;5057267;28;20218;-73
2024/02/23 06:45:07;;;;;;;9.40;4.03;;;;;;;4.62;100.00;99383.28;5055831;28;20211;-73
2024/02/23 06:47:33;;;;;;;12.10;4.67;;;;;;;5.02;100.00;99481.81;5056287;28;20263;-73
2024/02/23 06:49:59;;;;;;;10.83;3.40;;;;;;;4.71;100.00;99427.25;5042509;28;20442;-73
2024/02/23 06:52:26;;;;;;;8.30;3.40;;;;;;;5.02;100.00;99444.59;5044057;28;20487;-73
2024/02/23 06:54:51;;;;;;;11.33;3.87;;;;;;;4.80;100.00;99510.25;5057783;28;20461;-73
2024/02/23 06:57:17;;;;;;;9.47;3.40;;;;;;;4.80;100.00;99449.16;5039544;28;20485;-73
2024/02/23 06:59:43;;;;;;;12.40;3.80;;;;;;;4.68;100.00;99373.69;5055375;28;20270;-73
2024/02/23 07:02:10;;;;;;;11.87;4.13;;;;;;;4.75;100.00;99409.94;5039641;28;20184;-73
2024/02/23 07:04:36;;;;;;;9.20;3.77;;;;;;;5.19;100.00;99512.38;5042864;28;20197;-73
2024/02/23 07:07:07;;;;;;;13.03;4.37;;;;;;;4.89;100.00;99469.28;5060241;28;20505;-73
2024/02/23 07:09:33;;;;;;;10.40;4.50;;;;;;;4.85;100.00;99464.53;5057091;28;20208;-73
2024/02/23 07:11:58;;;;;;;12.63;3.90;;;;;;;5.06;100.00;99541.50;5034317;28;20495;-73
2024/02/23 07:14:24;;;;;;;11.87;3.33;;;;;;;5.27;100.00;99577.03;5040781;28;20430;-73
2024/02/23 07:16:49;;;;;;;12.23;3.70;;;;;;;5.26;100.00;99599.31;5061838;28;20253;-73
2024/02/23 07:19:14;;;;;;;14.93;4.10;;;;;;;4.71;100.00;99469.75;5055234;28;20187;-73
2024/02/23 07:21:40;;;;;;;10.83;3.67;;;;;;;5.26;100.00;99609.94;5053852;28;20175;-73
2024/02/23 07:24:06;;;;;;;12.37;3.47;;;;;;;5.09;100.00;99598.78;5059221;28;20183;-73
2024/02/23 07:26:31;;;;;;;13.67;3.77;;;;;;;5.10;100.00;99579.19;5053537;28;20286;-74
2024/02/23 07:28:57;;;;;;;10.80;3.60;;;;;;;4.72;100.00;99540.47;5058806;28;20183;-73
2024/02/23 07:31:22;;;;;;;12.33;3.20;;;;;;;5.20;100.00;99611.53;5039684;28;20615;-73
2024/02/23 07:33:48;;;;;;;13.77;4.40;;;;;;;5.14;100.00;99613.13;5038036;28;20605;-73
2024/02/23 07:36:15;;;;;;;12.53;3.70;;;;;;;5.14;100.00;99617.63;5039365;28;20314;-73
2024/02/23 07:38:41;;;;;;;11.33;4.43;;;;;;;4.53;100.00;99506.59;5061233;28;20187;-73
2024/02/23 07:41:09;;;;;;;18.07;5.00;;;;;;;4.84;100.00;99550.56;5032634;28;20461;-73
2024/02/23 07:43:35;;;;;;;14.43;4.10;;;;;;;5.04;100.00;99603.88;5056686;28;20307;-74
2024/02/23 07:46:02;;;;;;;9.40;3.67;;;;;;;5.31;100.00;99620.81;5054225;28;20958;-73
2024/02/23 07:48:28;;;;;;;8.70;3.50;;;;;;;5.08;100.00;99587.31;5056962;28;20417;-73
2024/02/23 07:50:55;;;;;;;16.30;4.53;;;;;;;5.29;100.00;99625.50;5056413;28;20797;-73
2024/02/23 07:53:21;;;;;;;13.50;4.10;;;;;;;5.29;100.00;99641.47;5061457;28;20183;-73
2024/02/23 07:55:46;;;;;;;10.30;3.47;;;;;;;5.25;100.00;99640.22;5060378;28;20466;-73
2024/02/23 07:58:12;;;;;;;8.70;3.37;;;;;;;4.16;100.00;99539.53;5058827;28;20188;-73
2024/02/23 08:00:38;;;;;;;11.63;3.80;;;;;;;5.37;100.00;99667.91;5037934;28;20290;-73
2024/02/23 08:03:04;;;;;;;16.30;3.70;;;;;;;4.76;100.00;99583.41;5053418;28;20176;-73
2024/02/23 08:05:30;;;;;;;12.40;3.43;;;;;;;5.14;100.00;99660.97;5059008;28;20429;-73
2024/02/23 08:07:55;;;;;;;12.27;3.60;;;;;;;5.05;100.00;99616.13;5059489;28;20421;-74
2024/02/23 08:10:21;;;;;;;13.63;3.77;;;;;;;5.43;100.00;99707.84;5056572;28;20275;-73
2024/02/23 08:12:47;;;;;;;10.97;3.37;;;;;;;5.21;100.00;99667.19;5058811;28;20180;-73
2024/02/23 08:15:13;;;;;;;10.83;3.47;;;;;;;5.37;100.00;99729.88;5057350;28;20434;-73
2024/02/23 08:17:38;;;;;;;14.57;4.00;;;;;;;4.78;100.00;99617.75;5061239;28;20195;-74
2024/02/23 08:20:04;;;;;;;15.73;3.80;;;;;;;4.58;100.00;99554.66;5058173;28;20420;-73
2024/02/23 08:22:31;;;;;;;13.40;3.23;;;;;;;5.34;100.00;99642.53;5057839;28;20183;-73
2024/02/23 08:24:56;;;;;;;9.50;3.33;;;;;;;4.68;100.00;99559.63;5057183;28;20786;-73
2024/02/23 08:27:21;;;;;;;13.37;3.07;;;;;;;5.53;100.00;99635.72;5039551;28;20448;-73
2024/02/23 08:29:47;;;;;;;10.97;3.23;;;;;;;5.25;100.00;99614.44;5058888;28;20604;-73
2024/02/23 08:32:13;;;;;;;11.13;2.60;;;;;;;5.46;100.00;99610.88;5060807;28;20656;-73
2024/02/23 08:34:38;;;;;;;15.67;2.40;;;;;;;5.44;100.00;99579.19;5060389;28;20193;-73
2024/02/23 08:37:04;;;;;;;8.90;2.47;;;;;;;5.60;100.00;99644.53;5064363;28;20290;-73
2024/02/23 08:39:30;;;;;;;10.77;3.20;;;;;;;5.39;100.00;99629.47;5031788;28;20611;-73
2024/02/23 08:41:55;;;;;;;8.83;2.00;;;;;;;5.44;100.00;99597.81;5051969;28;20987;-73
2024/02/23 08:44:21;;;;;;;10.37;1.80;;;;;;;5.33;100.00;99589.56;5036783;28;20235;-73
2024/02/23 08:46:48;;;;;;;10.80;2.03;;;;;;;5.50;100.00;99612.16;5051575;28;20244;-73
2024/02/23 08:49:14;;;;;;;10.40;2.10;;;;;;;5.63;100.00;99678.72;5062551;28;21270;-73
2024/02/23 08:51:40;;;;;;;7.40;1.67;;;;;;;5.78;100.00;99686.59;5061960;28;20429;-73
2024/02/23 08:54:07;;;;;;;9.33;2.70;;;;;;;4.90;100.00;99537.31;5061592;28;20410;-73
2024/02/23 08:56:39;;;;;;;8.97;2.13;;;;;;;5.71;100.00;99619.22;5043501;28;20568;-73
2024/02/23 08:59:04;;;;;;;8.33;1.50;;;;;;;5.44;100.00;99552.59;5057504;28;20502;-73
2024/02/23 09:01:32;;;;;;;7.80;1.93;;;;;;;5.12;100.00;99511.53;5059710;28;20545;-73
2024/02/23 09:03:58;;;;;;;7.43;1.40;;;;;;;5.66;100.00;99634.94;5062412;28;20622;-73
2024/02/23 09:06:23;;;;;;;9.87;2.07;;;;;;;5.82;100.00;99669.22;5058972;28;20462;-73
2024/02/23 09:08:49;;;;;;;9.87;1.63;;;;;;;5.70;100.00;99638.03;5060951;28;20658;-73
2024/02/23 09:11:15;;;;;;;9.17;1.73;;;;;;;5.91;100.00;99671.75;5062330;28;20250;-73
2024/02/23 09:13:42;;;;;;;8.00;1.63;;;;;;;5.91;100.00;99669.06;5061759;28;20211;-72
2024/02/23 09:16:08;;;;;;;8.83;1.37;;;;;;;5.63;100.00;99633.50;5063739;28;20564;-72
2024/02/23 09:18:34;;;;;;;7.33;1.50;;;;;;;5.83;100.00;99670.03;5044820;28;20430;-72
2024/02/23 09:21:00;;;;;;;7.80;2.00;;;;;;;5.53;100.00;99633.03;5054712;28;20453;-72
2024/02/23 09:23:26;;;;;;;8.57;2.63;;;;;;;5.70;100.00;99665.47;5059583;28;20620;-72
2024/02/23 09:25:52;;;;;;;7.77;1.97;;;;;;;5.80;100.00;99670.44;5060781;28;20179;-72
2024/02/23 09:28:17;;;;;;;8.80;1.63;;;;;;;5.98;100.00;99683.25;5056725;28;20586;-72
2024/02/23 09:30:43;;;;;;;9.33;2.03;;;;;;;5.38;100.00;99565.84;5057218;28;20207;-72
2024/02/23 09:33:08;;;;;;;13.63;6.27;;;;;;;5.89;100.00;99666.59;5060296;28;20210;-73
2024/02/23 09:35:33;;;;;;;9.80;1.97;;;;;;;5.72;100.00;99630.69;5056015;28;20755;-72
2024/02/23 09:37:59;;;;;;;8.13;1.67;;;;;;;5.88;100.00;99668.44;5044171;28;20657;-73
2024/02/23 09:40:25;;;;;;;9.40;1.30;;;;;;;5.47;100.00;99582.44;5060352;28;20555;-72
2024/02/23 09:42:56;;;;;;;7.63;2.07;;;;;;;6.01;100.00;99662.38;5039721;28;20191;-73
2024/02/23 09:45:24;;;;;;;10.20;2.00;;;;;;;5.81;100.00;99635.63;5041860;28;20191;-73
2024/02/23 09:47:50;;;;;;;9.07;2.17;;;;;;;6.10;100.00;99649.72;5060148;28;20426;-73
2024/02/23 09:50:17;;;;;;;9.40;1.93;;;;;;;5.84;100.00;99639.75;5058704;28;20520;-73
2024/02/23 09:52:43;;;;;;;7.63;1.37;;;;;;;5.77;100.00;99644.22;5056587;28;20484;-73
2024/02/23 09:55:09;;;;;;;6.77;1.30;;;;;;;6.15;100.00;99727.16;5040407;28;20460;-72
2024/02/23 09:57:36;;;;;;;7.60;1.37;;;;;;;6.17;100.00;99713.69;5043578;28;20249;-73
2024/02/23 10:00:06;;;;;;;9.60;1.80;;;;;;;6.04;100.00;99687.78;5059360;28;20450;-73
2024/02/23 10:02:32;;;;;;;6.73;1.23;;;;;;;5.65;100.00;99612.84;5056235;28;20437;-72
2024/02/23 10:04:59;;;;;;;7.53;1.30;;;;;;;5.92;100.00;99652.06;5061830;28;20923;-73
2024/02/23 10:07:25;;;;;;;8.13;2.60;;;;;;;6.41;100.00;99718.47;5042177;28;20442;-72
2024/02/23 10:09:50;;;;;;;12.27;2.50;;;;;;;5.54;100.00;99565.53;5041210;28;20441;-73
2024/02/23 10:12:16;;;;;;;8.47;1.73;;;;;;;6.41;100.00;99741.63;5044028;28;20179;-73
2024/02/23 10:14:42;;;;;;;7.40;1.10;;;;;;;6.09;100.00;99694.16;5058330;28;20194;-73
2024/02/23 10:17:08;;;;;;;8.87;1.77;;;;;;;6.21;100.00;99726.38;5064027;28;20665;-73
2024/02/23 10:19:36;;;;;;;8.97;1.33;;;;;;;6.26;100.00;99684.00;5043771;28;20460;-73
2024/02/23 10:22:01;;;;;;;5.27;1.23;;;;;;;5.93;100.00;99680.31;5060411;28;20429;-73
2024/02/23 10:24:27;;;;;;;11.03;1.60;;;;;;;6.56;100.00;99798.25;5061347;28;20471;-73
2024/02/23 10:26:53;;;;;;;7.53;1.50;;;;;;;6.61;100.00;99798.47;5059982;28;20257;-73
2024/02/23 10:29:19;;;;;;;10.07;1.43;;;;;;;6.38;100.00;99772.16;5043471;28;20935;-73
2024/02/23 10:31:49;;;;;;;10.50;1.33;;;;;;;6.08;100.00;99732.47;5052076;23;20252;-69
2024/02/23 10:34:19;;;;;;;10.73;1.40;;;;;;;6.67;100.00;99813.69;5040054;28;20423;-69
2024/02/23 10:36:47;;;;;;;6.80;1.33;;;;;;;6.51;100.00;99800.72;5042684;28;20506;-69
2024/02/23 10:39:17;;;;;;;10.90;1.60;;;;;;;6.57;100.00;99814.06;5013497;28;20435;-69
2024/02/23 10:41:58;;;;;;;7.37;1.30;;;;;;;6.62;100.00;99828.63;5051712;28;20457;-69
2024/02/23 10:44:24;;;;;;;10.30;1.27;;;;;;;6.76;100.00;99840.97;5036822;28;21008;-69
2024/02/23 10:46:52;;;;;;;8.67;1.50;;;;;;;6.76;100.00;99875.63;5036632;28;20426;-69
2024/02/23 10:49:19;;;;;;;8.57;1.60;;;;;;;6.78;100.00;99815.78;5036595;28;20434;-69
2024/02/23 10:51:47;;;;;;;10.57;1.60;;;;;;;6.17;100.00;99757.09;5056090;28;20422;-69
2024/02/23 10:54:13;;;;;;;9.40;1.47;;;;;;;6.79;100.00;99835.25;5036792;28;20429;-69
2024/02/23 10:56:40;;;;;;;7.60;1.30;;;;;;;6.09;100.00;99752.72;5037707;28;20464;-69
2024/02/23 10:59:08;;;;;;;9.47;1.40;;;;;;;6.99;100.00;99854.81;5056505;28;20417;-70
2024/02/23 11:01:35;;;;;;;7.37;1.40;;;;;;;6.67;100.00;99858.97;5045363;28;20947;-68
2024/02/23 11:04:01;;;;;;;6.10;1.20;;;;;;;6.62;100.00;99841.94;5051554;28;20781;-69
2024/02/23 11:06:27;;;;;;;7.70;1.40;;;;;;;6.29;100.00;99781.31;5034251;28;20824;-68
2024/02/23 11:08:53;;;;;;;6.93;1.40;;;;;;;6.00;100.00;99740.59;5055350;28;21110;-69
2024/02/23 11:11:19;;;;;;;8.47;1.60;;;;;;;6.10;100.00;99786.34;5054417;28;20453;-69
2024/02/23 11:13:45;;;;;;;8.50;1.40;;;;;;;6.77;100.00;99858.63;5043997;28;20681;-68
2024/02/23 11:16:11;;;;;;;7.00;1.53;;;;;;;6.46;100.00;99789.81;5053838;28;20262;-69
2024/02/23 11:18:39;;;;;;;9.70;2.63;;;;;;;6.44;100.00;99781.19;5044457;28;20974;-69
2024/02/23 11:21:08;;;;;;;7.03;1.60;;;;;;;6.52;100.00;99770.38;5041125;28;20624;-68
2024/02/23 11:23:48;;;;;;;8.73;1.40;;;;;;;6.71;100.00;99812.28;5048826;28;20473;-68
2024/02/23 11:26:14;;;;;;;8.57;2.03;;;;;;;6.76;100.00;99830.31;5036176;28;20581;-69
2024/02/23 11:28:53;;;;;;;15.07;1.80;;;;;;;6.64;100.00;99823.91;5054713;28;20440;-69